sensor_id;sensor_type;location;lat;lon;timestamp;P1;durP1;ratioP1;P2;durP2;ratioP2
59416;SDS011;45222;52.458;20.914;2023-07-13T00:00:18;43.70;;;15.40;;
59416;SDS011;45222;52.458;20.914;2023-07-13T00:04:24;41.90;;;14.10;;
59416;SDS011;45222;52.458;20.914;2023-07-13T00:08:10;28.40;;;14.10;;
59416;SDS011;45222;52.458;20.914;2023-07-13T00:12:01;27.70;;;13.90;;
59416;SDS011;45222;52.458;20.914;2023-07-13T00:15:46;17.80;;;13.50;;
59416;SDS011;45222;52.458;20.914;2023-07-13T00:19:31;17.60;;;14.00;;
59416;SDS011;45222;52.458;20.914;2023-07-13T00:23:18;17.70;;;14.30;;
59416;SDS011;45222;52.458;20.914;2023-07-13T00:27:04;17.00;;;14.00;;
59416;SDS011;45222;52.458;20.914;2023-07-13T00:30:49;15.50;;;13.70;;
59416;SDS011;45222;52.458;20.914;2023-07-13T00:34:34;15.60;;;13.80;;
59416;SDS011;45222;52.458;20.914;2023-07-13T00:38:20;17.00;;;13.80;;
59416;SDS011;45222;52.458;20.914;2023-07-13T00:42:06;14.20;;;12.40;;
59416;SDS011;45222;52.458;20.914;2023-07-13T00:46:12;13.90;;;12.50;;
59416;SDS011;45222;52.458;20.914;2023-07-13T00:50:13;15.10;;;13.50;;
59416;SDS011;45222;52.458;20.914;2023-07-13T00:54:00;15.10;;;12.90;;
59416;SDS011;45222;52.458;20.914;2023-07-13T00:57:50;13.30;;;11.90;;
59416;SDS011;45222;52.458;20.914;2023-07-13T01:01:35;17.00;;;15.20;;
59416;SDS011;45222;52.458;20.914;2023-07-13T01:05:21;15.50;;;13.60;;
59416;SDS011;45222;52.458;20.914;2023-07-13T01:09:07;17.20;;;14.60;;
59416;SDS011;45222;52.458;20.914;2023-07-13T01:12:54;15.20;;;13.50;;
59416;SDS011;45222;52.458;20.914;2023-07-13T01:16:39;16.80;;;13.80;;
59416;SDS011;45222;52.458;20.914;2023-07-13T01:20:27;16.70;;;14.20;;
59416;SDS011;45222;52.458;20.914;2023-07-13T01:24:12;14.50;;;13.00;;
59416;SDS011;45222;52.458;20.914;2023-07-13T01:27:58;13.90;;;12.50;;
59416;SDS011;45222;52.458;20.914;2023-07-13T01:31:43;13.90;;;12.30;;
59416;SDS011;45222;52.458;20.914;2023-07-13T01:35:29;15.80;;;13.80;;
59416;SDS011;45222;52.458;20.914;2023-07-13T01:39:14;15.80;;;14.20;;
59416;SDS011;45222;52.458;20.914;2023-07-13T01:43:00;15.80;;;13.30;;
59416;SDS011;45222;52.458;20.914;2023-07-13T01:46:46;15.30;;;13.20;;
59416;SDS011;45222;52.458;20.914;2023-07-13T01:50:31;14.60;;;12.90;;
59416;SDS011;45222;52.458;20.914;2023-07-13T01:54:16;15.40;;;12.20;;
59416;SDS011;45222;52.458;20.914;2023-07-13T01:58:02;15.30;;;12.90;;
59416;SDS011;45222;52.458;20.914;2023-07-13T02:01:47;14.40;;;12.90;;
59416;SDS011;45222;52.458;20.914;2023-07-13T02:05:33;15.00;;;13.30;;
59416;SDS011;45222;52.458;20.914;2023-07-13T02:09:18;13.60;;;12.20;;
59416;SDS011;45222;52.458;20.914;2023-07-13T02:13:03;13.90;;;12.20;;
59416;SDS011;45222;52.458;20.914;2023-07-13T02:16:49;13.30;;;11.90;;
59416;SDS011;45222;52.458;20.914;2023-07-13T02:20:35;15.80;;;13.80;;
59416;SDS011;45222;52.458;20.914;2023-07-13T02:24:20;14.50;;;13.00;;
59416;SDS011;45222;52.458;20.914;2023-07-13T02:28:05;14.20;;;12.70;;
59416;SDS011;45222;52.458;20.914;2023-07-13T02:31:50;14.30;;;12.00;;
59416;SDS011;45222;52.458;20.914;2023-07-13T02:35:35;13.80;;;12.40;;
59416;SDS011;45222;52.458;20.914;2023-07-13T02:39:21;16.70;;;13.80;;
59416;SDS011;45222;52.458;20.914;2023-07-13T02:43:06;14.60;;;12.20;;
59416;SDS011;45222;52.458;20.914;2023-07-13T02:46:51;13.20;;;11.70;;
59416;SDS011;45222;52.458;20.914;2023-07-13T02:50:36;14.40;;;12.00;;
59416;SDS011;45222;52.458;20.914;2023-07-13T02:54:22;14.80;;;12.00;;
59416;SDS011;45222;52.458;20.914;2023-07-13T02:58:07;13.90;;;12.10;;
59416;SDS011;45222;52.458;20.914;2023-07-13T03:01:52;14.40;;;12.30;;
59416;SDS011;45222;52.458;20.914;2023-07-13T03:05:37;13.90;;;11.80;;
59416;SDS011;45222;52.458;20.914;2023-07-13T03:09:25;14.10;;;12.60;;
59416;SDS011;45222;52.458;20.914;2023-07-13T03:13:10;15.00;;;12.50;;
59416;SDS011;45222;52.458;20.914;2023-07-13T03:16:55;16.00;;;13.40;;
59416;SDS011;45222;52.458;20.914;2023-07-13T03:20:41;14.60;;;12.90;;
59416;SDS011;45222;52.458;20.914;2023-07-13T03:24:26;14.90;;;12.10;;
59416;SDS011;45222;52.458;20.914;2023-07-13T03:28:11;14.70;;;11.50;;
59416;SDS011;45222;52.458;20.914;2023-07-13T03:31:56;13.20;;;11.70;;
59416;SDS011;45222;52.458;20.914;2023-07-13T03:35:42;13.90;;;12.00;;
59416;SDS011;45222;52.458;20.914;2023-07-13T03:39:27;12.60;;;11.30;;
59416;SDS011;45222;52.458;20.914;2023-07-13T03:43:12;13.90;;;11.50;;
59416;SDS011;45222;52.458;20.914;2023-07-13T03:46:57;13.20;;;11.70;;
59416;SDS011;45222;52.458;20.914;2023-07-13T03:50:42;14.20;;;12.10;;
59416;SDS011;45222;52.458;20.914;2023-07-13T03:54:27;15.20;;;12.90;;
59416;SDS011;45222;52.458;20.914;2023-07-13T03:58:26;13.10;;;11.70;;
59416;SDS011;45222;52.458;20.914;2023-07-13T04:02:12;13.20;;;11.30;;
59416;SDS011;45222;52.458;20.914;2023-07-13T04:05:58;13.30;;;11.90;;
59416;SDS011;45222;52.458;20.914;2023-07-13T04:09:43;14.80;;;12.20;;
59416;SDS011;45222;52.458;20.914;2023-07-13T04:13:29;13.60;;;12.00;;
59416;SDS011;45222;52.458;20.914;2023-07-13T04:17:14;13.60;;;12.00;;
59416;SDS011;45222;52.458;20.914;2023-07-13T04:20:59;13.80;;;12.30;;
59416;SDS011;45222;52.458;20.914;2023-07-13T04:24:44;14.60;;;11.50;;
59416;SDS011;45222;52.458;20.914;2023-07-13T04:28:29;13.00;;;11.60;;
59416;SDS011;45222;52.458;20.914;2023-07-13T04:32:15;14.90;;;12.60;;
59416;SDS011;45222;52.458;20.914;2023-07-13T04:36:00;14.90;;;13.30;;
59416;SDS011;45222;52.458;20.914;2023-07-13T04:39:45;14.60;;;13.10;;
59416;SDS011;45222;52.458;20.914;2023-07-13T04:43:30;14.80;;;12.50;;
59416;SDS011;45222;52.458;20.914;2023-07-13T04:47:16;14.70;;;12.60;;
59416;SDS011;45222;52.458;20.914;2023-07-13T04:51:02;15.50;;;13.00;;
59416;SDS011;45222;52.458;20.914;2023-07-13T04:54:48;16.20;;;12.00;;
59416;SDS011;45222;52.458;20.914;2023-07-13T04:58:33;15.70;;;13.20;;
59416;SDS011;45222;52.458;20.914;2023-07-13T05:02:19;16.60;;;13.60;;
59416;SDS011;45222;52.458;20.914;2023-07-13T05:06:06;15.60;;;13.50;;
59416;SDS011;45222;52.458;20.914;2023-07-13T05:09:53;14.30;;;12.80;;
59416;SDS011;45222;52.458;20.914;2023-07-13T05:13:38;16.70;;;13.20;;
59416;SDS011;45222;52.458;20.914;2023-07-13T05:17:24;15.30;;;13.70;;
59416;SDS011;45222;52.458;20.914;2023-07-13T05:21:10;15.20;;;13.10;;
59416;SDS011;45222;52.458;20.914;2023-07-13T05:24:55;16.30;;;14.40;;
59416;SDS011;45222;52.458;20.914;2023-07-13T05:28:41;16.50;;;14.20;;
59416;SDS011;45222;52.458;20.914;2023-07-13T05:32:26;18.00;;;15.00;;
59416;SDS011;45222;52.458;20.914;2023-07-13T05:36:11;16.50;;;14.00;;
59416;SDS011;45222;52.458;20.914;2023-07-13T05:39:56;16.10;;;14.40;;
59416;SDS011;45222;52.458;20.914;2023-07-13T05:43:42;17.30;;;15.30;;
59416;SDS011;45222;52.458;20.914;2023-07-13T05:47:27;17.40;;;14.40;;
59416;SDS011;45222;52.458;20.914;2023-07-13T05:51:12;14.90;;;13.30;;
59416;SDS011;45222;52.458;20.914;2023-07-13T05:54:57;15.60;;;13.60;;
59416;SDS011;45222;52.458;20.914;2023-07-13T05:58:43;16.00;;;13.30;;
59416;SDS011;45222;52.458;20.914;2023-07-13T06:02:28;16.40;;;14.10;;
59416;SDS011;45222;52.458;20.914;2023-07-13T06:06:15;19.20;;;14.20;;
59416;SDS011;45222;52.458;20.914;2023-07-13T06:10:00;91.40;;;17.80;;
59416;SDS011;45222;52.458;20.914;2023-07-13T06:13:46;17.40;;;13.20;;
59416;SDS011;45222;52.458;20.914;2023-07-13T06:17:31;18.30;;;14.00;;
59416;SDS011;45222;52.458;20.914;2023-07-13T06:21:17;15.40;;;13.30;;
59416;SDS011;45222;52.458;20.914;2023-07-13T06:25:03;16.50;;;14.20;;
59416;SDS011;45222;52.458;20.914;2023-07-13T06:28:50;20.60;;;13.70;;
59416;SDS011;45222;52.458;20.914;2023-07-13T06:32:36;14.70;;;12.70;;
59416;SDS011;45222;52.458;20.914;2023-07-13T06:36:21;16.00;;;11.70;;
59416;SDS011;45222;52.458;20.914;2023-07-13T06:40:08;14.90;;;11.60;;
59416;SDS011;45222;52.458;20.914;2023-07-13T06:43:54;13.10;;;11.30;;
59416;SDS011;45222;52.458;20.914;2023-07-13T06:47:39;14.60;;;10.50;;
59416;SDS011;45222;52.458;20.914;2023-07-13T06:51:25;11.40;;;10.00;;
59416;SDS011;45222;52.458;20.914;2023-07-13T06:55:10;10.90;;;8.50;;
59416;SDS011;45222;52.458;20.914;2023-07-13T06:58:55;10.60;;;7.30;;
59416;SDS011;45222;52.458;20.914;2023-07-13T07:02:40;10.30;;;7.30;;
59416;SDS011;45222;52.458;20.914;2023-07-13T07:06:25;10.10;;;6.80;;
59416;SDS011;45222;52.458;20.914;2023-07-13T07:10:11;9.20;;;6.70;;
59416;SDS011;45222;52.458;20.914;2023-07-13T07:13:56;8.60;;;6.50;;
59416;SDS011;45222;52.458;20.914;2023-07-13T07:17:41;8.40;;;6.40;;
59416;SDS011;45222;52.458;20.914;2023-07-13T07:21:27;8.90;;;6.20;;
59416;SDS011;45222;52.458;20.914;2023-07-13T07:25:12;7.90;;;6.00;;
59416;SDS011;45222;52.458;20.914;2023-07-13T07:28:58;8.20;;;6.10;;
59416;SDS011;45222;52.458;20.914;2023-07-13T07:32:43;8.10;;;5.60;;
59416;SDS011;45222;52.458;20.914;2023-07-13T07:36:28;10.30;;;6.10;;
59416;SDS011;45222;52.458;20.914;2023-07-13T07:40:15;11.80;;;6.40;;
59416;SDS011;45222;52.458;20.914;2023-07-13T07:44:16;7.90;;;6.00;;
59416;SDS011;45222;52.458;20.914;2023-07-13T07:48:01;8.90;;;6.00;;
59416;SDS011;45222;52.458;20.914;2023-07-13T07:51:47;8.30;;;5.50;;
59416;SDS011;45222;52.458;20.914;2023-07-13T07:55:32;8.10;;;5.20;;
59416;SDS011;45222;52.458;20.914;2023-07-13T07:59:18;7.80;;;5.20;;
59416;SDS011;45222;52.458;20.914;2023-07-13T08:03:04;8.30;;;5.00;;
59416;SDS011;45222;52.458;20.914;2023-07-13T08:06:49;9.10;;;5.10;;
59416;SDS011;45222;52.458;20.914;2023-07-13T08:10:35;7.20;;;4.90;;
59416;SDS011;45222;52.458;20.914;2023-07-13T08:14:21;7.40;;;4.90;;
59416;SDS011;45222;52.458;20.914;2023-07-13T08:18:06;7.60;;;4.90;;
59416;SDS011;45222;52.458;20.914;2023-07-13T08:21:56;11.20;;;5.10;;
59416;SDS011;45222;52.458;20.914;2023-07-13T08:25:42;7.50;;;5.60;;
59416;SDS011;45222;52.458;20.914;2023-07-13T08:29:34;9.80;;;4.80;;
59416;SDS011;45222;52.458;20.914;2023-07-13T08:33:20;9.50;;;5.10;;
59416;SDS011;45222;52.458;20.914;2023-07-13T08:37:07;9.90;;;5.30;;
59416;SDS011;45222;52.458;20.914;2023-07-13T08:40:55;10.40;;;3.10;;
59416;SDS011;45222;52.458;20.914;2023-07-13T08:44:43;5.80;;;2.70;;
59416;SDS011;45222;52.458;20.914;2023-07-13T08:48:39;6.40;;;2.50;;
59416;SDS011;45222;52.458;20.914;2023-07-13T08:52:30;7.00;;;2.10;;
59416;SDS011;45222;52.458;20.914;2023-07-13T08:56:19;6.60;;;2.20;;
59416;SDS011;45222;52.458;20.914;2023-07-13T09:00:09;6.20;;;2.40;;
59416;SDS011;45222;52.458;20.914;2023-07-13T09:03:59;5.20;;;2.70;;
59416;SDS011;45222;52.458;20.914;2023-07-13T09:12:02;7.00;;;2.60;;
59416;SDS011;45222;52.458;20.914;2023-07-13T09:15:56;5.00;;;2.70;;
59416;SDS011;45222;52.458;20.914;2023-07-13T09:19:43;5.30;;;3.00;;
59416;SDS011;45222;52.458;20.914;2023-07-13T09:23:34;8.70;;;2.50;;
59416;SDS011;45222;52.458;20.914;2023-07-13T09:27:21;7.20;;;2.60;;
59416;SDS011;45222;52.458;20.914;2023-07-13T09:31:10;6.40;;;2.80;;
59416;SDS011;45222;52.458;20.914;2023-07-13T09:34:58;7.20;;;2.80;;
59416;SDS011;45222;52.458;20.914;2023-07-13T09:38:44;5.80;;;2.90;;
59416;SDS011;45222;52.458;20.914;2023-07-13T09:42:30;6.10;;;3.30;;
59416;SDS011;45222;52.458;20.914;2023-07-13T09:46:20;5.40;;;2.80;;
59416;SDS011;45222;52.458;20.914;2023-07-13T09:50:09;5.70;;;2.70;;
59416;SDS011;45222;52.458;20.914;2023-07-13T09:53:59;7.40;;;2.90;;
59416;SDS011;45222;52.458;20.914;2023-07-13T09:57:47;5.70;;;3.00;;
59416;SDS011;45222;52.458;20.914;2023-07-13T10:01:33;7.40;;;2.80;;
59416;SDS011;45222;52.458;20.914;2023-07-13T10:05:21;7.00;;;3.00;;
59416;SDS011;45222;52.458;20.914;2023-07-13T10:09:08;4.90;;;3.10;;
59416;SDS011;45222;52.458;20.914;2023-07-13T10:12:54;5.40;;;2.90;;
59416;SDS011;45222;52.458;20.914;2023-07-13T10:16:39;5.60;;;3.00;;
59416;SDS011;45222;52.458;20.914;2023-07-13T10:20:27;7.70;;;3.60;;
59416;SDS011;45222;52.458;20.914;2023-07-13T10:24:14;7.00;;;3.30;;
59416;SDS011;45222;52.458;20.914;2023-07-13T10:28:04;6.60;;;3.30;;
59416;SDS011;45222;52.458;20.914;2023-07-13T10:31:58;6.10;;;3.30;;
59416;SDS011;45222;52.458;20.914;2023-07-13T10:35:44;5.60;;;3.20;;
59416;SDS011;45222;52.458;20.914;2023-07-13T10:39:32;5.40;;;3.00;;
59416;SDS011;45222;52.458;20.914;2023-07-13T10:43:20;5.40;;;3.30;;
59416;SDS011;45222;52.458;20.914;2023-07-13T10:47:11;5.80;;;3.40;;
59416;SDS011;45222;52.458;20.914;2023-07-13T10:51:01;5.70;;;3.20;;
59416;SDS011;45222;52.458;20.914;2023-07-13T10:54:49;5.90;;;3.50;;
59416;SDS011;45222;52.458;20.914;2023-07-13T10:58:35;6.10;;;3.60;;
59416;SDS011;45222;52.458;20.914;2023-07-13T11:02:24;5.10;;;3.40;;
59416;SDS011;45222;52.458;20.914;2023-07-13T11:06:12;7.20;;;3.90;;
59416;SDS011;45222;52.458;20.914;2023-07-13T11:10:03;6.30;;;3.60;;
59416;SDS011;45222;52.458;20.914;2023-07-13T11:13:57;7.60;;;4.20;;
59416;SDS011;45222;52.458;20.914;2023-07-13T11:17:48;9.40;;;4.60;;
59416;SDS011;45222;52.458;20.914;2023-07-13T11:21:35;7.80;;;4.40;;
59416;SDS011;45222;52.458;20.914;2023-07-13T11:25:47;6.60;;;4.40;;
59416;SDS011;45222;52.458;20.914;2023-07-13T11:29:34;7.00;;;4.20;;
59416;SDS011;45222;52.458;20.914;2023-07-13T11:33:22;8.50;;;4.00;;
59416;SDS011;45222;52.458;20.914;2023-07-13T11:37:12;7.00;;;4.10;;
59416;SDS011;45222;52.458;20.914;2023-07-13T11:41:03;6.60;;;4.10;;
59416;SDS011;45222;52.458;20.914;2023-07-13T11:44:50;8.90;;;3.70;;
59416;SDS011;45222;52.458;20.914;2023-07-13T11:48:38;10.50;;;4.20;;
59416;SDS011;45222;52.458;20.914;2023-07-13T11:52:26;8.80;;;4.70;;
59416;SDS011;45222;52.458;20.914;2023-07-13T11:56:17;9.00;;;4.70;;
59416;SDS011;45222;52.458;20.914;2023-07-13T12:00:04;9.40;;;5.10;;
59416;SDS011;45222;52.458;20.914;2023-07-13T12:03:58;11.70;;;5.40;;
59416;SDS011;45222;52.458;20.914;2023-07-13T12:07:46;10.10;;;5.20;;
59416;SDS011;45222;52.458;20.914;2023-07-13T12:11:34;7.80;;;4.50;;
59416;SDS011;45222;52.458;20.914;2023-07-13T12:15:21;8.30;;;4.70;;
59416;SDS011;45222;52.458;20.914;2023-07-13T12:19:12;7.50;;;4.30;;
59416;SDS011;45222;52.458;20.914;2023-07-13T12:23:04;7.70;;;4.70;;
59416;SDS011;45222;52.458;20.914;2023-07-13T12:26:53;8.40;;;4.60;;
59416;SDS011;45222;52.458;20.914;2023-07-13T12:30:43;8.40;;;4.90;;
59416;SDS011;45222;52.458;20.914;2023-07-13T12:34:49;9.00;;;4.50;;
59416;SDS011;45222;52.458;20.914;2023-07-13T12:38:37;6.60;;;4.50;;
59416;SDS011;45222;52.458;20.914;2023-07-13T12:42:24;7.90;;;5.00;;
59416;SDS011;45222;52.458;20.914;2023-07-13T12:46:16;8.10;;;5.00;;
59416;SDS011;45222;52.458;20.914;2023-07-13T12:50:04;8.50;;;5.30;;
59416;SDS011;45222;52.458;20.914;2023-07-13T12:53:59;7.70;;;5.20;;
59416;SDS011;45222;52.458;20.914;2023-07-13T12:57:57;9.20;;;5.00;;
59416;SDS011;45222;52.458;20.914;2023-07-13T13:01:43;8.80;;;4.80;;
59416;SDS011;45222;52.458;20.914;2023-07-13T13:05:30;7.60;;;4.60;;
59416;SDS011;45222;52.458;20.914;2023-07-13T13:09:17;9.70;;;5.00;;
59416;SDS011;45222;52.458;20.914;2023-07-13T13:13:03;8.60;;;5.60;;
59416;SDS011;45222;52.458;20.914;2023-07-13T13:16:49;7.60;;;5.20;;
59416;SDS011;45222;52.458;20.914;2023-07-13T13:20:36;9.70;;;5.50;;
59416;SDS011;45222;52.458;20.914;2023-07-13T13:24:22;8.20;;;5.60;;
59416;SDS011;45222;52.458;20.914;2023-07-13T13:28:13;10.10;;;5.90;;
59416;SDS011;45222;52.458;20.914;2023-07-13T13:32:00;9.60;;;5.50;;
59416;SDS011;45222;52.458;20.914;2023-07-13T13:35:46;11.00;;;5.30;;
59416;SDS011;45222;52.458;20.914;2023-07-13T13:39:32;7.60;;;5.30;;
59416;SDS011;45222;52.458;20.914;2023-07-13T13:43:21;8.10;;;5.70;;
59416;SDS011;45222;52.458;20.914;2023-07-13T13:47:17;9.70;;;5.60;;
59416;SDS011;45222;52.458;20.914;2023-07-13T13:51:15;7.50;;;4.60;;
59416;SDS011;45222;52.458;20.914;2023-07-13T13:55:04;7.00;;;4.50;;
59416;SDS011;45222;52.458;20.914;2023-07-13T13:58:55;8.30;;;4.70;;
59416;SDS011;45222;52.458;20.914;2023-07-13T14:02:40;7.90;;;5.20;;
59416;SDS011;45222;52.458;20.914;2023-07-13T14:06:30;7.10;;;4.70;;
59416;SDS011;45222;52.458;20.914;2023-07-13T14:10:18;8.60;;;5.20;;
59416;SDS011;45222;52.458;20.914;2023-07-13T14:14:04;8.80;;;5.40;;
59416;SDS011;45222;52.458;20.914;2023-07-13T14:17:49;8.20;;;4.80;;
59416;SDS011;45222;52.458;20.914;2023-07-13T14:21:35;7.60;;;4.60;;
59416;SDS011;45222;52.458;20.914;2023-07-13T14:25:21;8.50;;;4.90;;
59416;SDS011;45222;52.458;20.914;2023-07-13T14:29:10;8.80;;;5.50;;
59416;SDS011;45222;52.458;20.914;2023-07-13T14:32:58;8.30;;;5.80;;
59416;SDS011;45222;52.458;20.914;2023-07-13T14:36:43;8.40;;;5.40;;
59416;SDS011;45222;52.458;20.914;2023-07-13T14:40:31;7.50;;;5.30;;
59416;SDS011;45222;52.458;20.914;2023-07-13T14:44:17;7.10;;;5.20;;
59416;SDS011;45222;52.458;20.914;2023-07-13T14:48:08;8.80;;;5.70;;
59416;SDS011;45222;52.458;20.914;2023-07-13T14:52:00;7.90;;;5.70;;
59416;SDS011;45222;52.458;20.914;2023-07-13T14:55:49;9.50;;;6.30;;
59416;SDS011;45222;52.458;20.914;2023-07-13T14:59:35;7.60;;;5.60;;
59416;SDS011;45222;52.458;20.914;2023-07-13T15:03:21;8.70;;;5.90;;
59416;SDS011;45222;52.458;20.914;2023-07-13T15:07:09;9.10;;;5.80;;
59416;SDS011;45222;52.458;20.914;2023-07-13T15:10:57;8.90;;;5.70;;
59416;SDS011;45222;52.458;20.914;2023-07-13T15:14:43;9.30;;;5.90;;
59416;SDS011;45222;52.458;20.914;2023-07-13T15:18:28;9.90;;;5.90;;
59416;SDS011;45222;52.458;20.914;2023-07-13T15:22:14;9.10;;;5.80;;
59416;SDS011;45222;52.458;20.914;2023-07-13T15:25:59;7.50;;;5.50;;
59416;SDS011;45222;52.458;20.914;2023-07-13T15:29:45;10.40;;;5.90;;
59416;SDS011;45222;52.458;20.914;2023-07-13T15:33:31;9.70;;;5.80;;
59416;SDS011;45222;52.458;20.914;2023-07-13T15:37:20;8.50;;;5.80;;
59416;SDS011;45222;52.458;20.914;2023-07-13T15:41:09;7.60;;;5.00;;
59416;SDS011;45222;52.458;20.914;2023-07-13T15:44:59;11.70;;;6.00;;
59416;SDS011;45222;52.458;20.914;2023-07-13T15:48:46;8.10;;;6.00;;
59416;SDS011;45222;52.458;20.914;2023-07-13T15:52:31;15.30;;;7.70;;
59416;SDS011;45222;52.458;20.914;2023-07-13T15:56:18;11.40;;;5.80;;
59416;SDS011;45222;52.458;20.914;2023-07-13T16:00:13;8.80;;;5.30;;
59416;SDS011;45222;52.458;20.914;2023-07-13T16:04:01;9.90;;;5.70;;
59416;SDS011;45222;52.458;20.914;2023-07-13T16:07:48;8.50;;;6.10;;
59416;SDS011;45222;52.458;20.914;2023-07-13T16:11:37;8.20;;;5.60;;
59416;SDS011;45222;52.458;20.914;2023-07-13T16:15:24;8.70;;;5.60;;
59416;SDS011;45222;52.458;20.914;2023-07-13T16:19:10;6.90;;;5.50;;
59416;SDS011;45222;52.458;20.914;2023-07-13T16:22:56;7.40;;;5.50;;
59416;SDS011;45222;52.458;20.914;2023-07-13T16:26:42;8.70;;;6.00;;
59416;SDS011;45222;52.458;20.914;2023-07-13T16:30:29;10.00;;;6.30;;
59416;SDS011;45222;52.458;20.914;2023-07-13T16:34:15;9.20;;;6.30;;
59416;SDS011;45222;52.458;20.914;2023-07-13T16:38:00;9.50;;;6.10;;
59416;SDS011;45222;52.458;20.914;2023-07-13T16:41:47;8.50;;;5.70;;
59416;SDS011;45222;52.458;20.914;2023-07-13T16:45:33;9.40;;;5.60;;
59416;SDS011;45222;52.458;20.914;2023-07-13T16:49:25;10.90;;;6.50;;
59416;SDS011;45222;52.458;20.914;2023-07-13T16:53:15;9.00;;;6.40;;
59416;SDS011;45222;52.458;20.914;2023-07-13T16:57:11;10.70;;;6.80;;
59416;SDS011;45222;52.458;20.914;2023-07-13T17:00:58;8.50;;;6.50;;
59416;SDS011;45222;52.458;20.914;2023-07-13T17:04:47;9.60;;;6.60;;
59416;SDS011;45222;52.458;20.914;2023-07-13T17:08:32;9.10;;;6.20;;
59416;SDS011;45222;52.458;20.914;2023-07-13T17:12:19;10.10;;;6.90;;
59416;SDS011;45222;52.458;20.914;2023-07-13T17:16:08;9.90;;;7.20;;
59416;SDS011;45222;52.458;20.914;2023-07-13T17:19:54;11.40;;;7.50;;
59416;SDS011;45222;52.458;20.914;2023-07-13T17:23:45;13.00;;;7.30;;
59416;SDS011;45222;52.458;20.914;2023-07-13T17:27:35;11.40;;;6.70;;
59416;SDS011;45222;52.458;20.914;2023-07-13T17:31:20;10.90;;;7.20;;
59416;SDS011;45222;52.458;20.914;2023-07-13T17:35:12;9.80;;;7.50;;
59416;SDS011;45222;52.458;20.914;2023-07-13T17:39:05;10.30;;;7.40;;
59416;SDS011;45222;52.458;20.914;2023-07-13T17:42:57;9.90;;;7.50;;
59416;SDS011;45222;52.458;20.914;2023-07-13T17:46:42;11.60;;;7.60;;
59416;SDS011;45222;52.458;20.914;2023-07-13T17:50:29;11.20;;;7.60;;
59416;SDS011;45222;52.458;20.914;2023-07-13T17:54:18;11.60;;;7.80;;
59416;SDS011;45222;52.458;20.914;2023-07-13T17:58:04;10.40;;;8.00;;
59416;SDS011;45222;52.458;20.914;2023-07-13T18:01:49;11.30;;;8.10;;
59416;SDS011;45222;52.458;20.914;2023-07-13T18:05:35;11.00;;;7.90;;
59416;SDS011;45222;52.458;20.914;2023-07-13T18:09:21;10.90;;;8.40;;
59416;SDS011;45222;52.458;20.914;2023-07-13T18:13:09;11.60;;;7.70;;
59416;SDS011;45222;52.458;20.914;2023-07-13T18:16:57;11.80;;;7.70;;
59416;SDS011;45222;52.458;20.914;2023-07-13T18:21:07;12.70;;;8.20;;
59416;SDS011;45222;52.458;20.914;2023-07-13T18:24:55;10.80;;;8.70;;
59416;SDS011;45222;52.458;20.914;2023-07-13T18:28:41;12.80;;;8.00;;
59416;SDS011;45222;52.458;20.914;2023-07-13T18:32:27;10.80;;;8.20;;
59416;SDS011;45222;52.458;20.914;2023-07-13T18:36:13;11.70;;;8.60;;
59416;SDS011;45222;52.458;20.914;2023-07-13T18:39:59;12.50;;;8.80;;
59416;SDS011;45222;52.458;20.914;2023-07-13T18:43:45;12.90;;;9.30;;
59416;SDS011;45222;52.458;20.914;2023-07-13T18:47:31;11.70;;;8.80;;
59416;SDS011;45222;52.458;20.914;2023-07-13T18:51:18;10.80;;;9.10;;
59416;SDS011;45222;52.458;20.914;2023-07-13T18:55:12;12.70;;;8.90;;
59416;SDS011;45222;52.458;20.914;2023-07-13T18:58:58;14.00;;;9.50;;
59416;SDS011;45222;52.458;20.914;2023-07-13T19:02:44;12.60;;;9.70;;
59416;SDS011;45222;52.458;20.914;2023-07-13T19:06:29;15.00;;;9.90;;
59416;SDS011;45222;52.458;20.914;2023-07-13T19:10:15;14.10;;;10.10;;
59416;SDS011;45222;52.458;20.914;2023-07-13T19:14:04;14.00;;;8.80;;
59416;SDS011;45222;52.458;20.914;2023-07-13T19:17:52;14.60;;;8.00;;
59416;SDS011;45222;52.458;20.914;2023-07-13T19:21:37;13.10;;;8.80;;
59416;SDS011;45222;52.458;20.914;2023-07-13T19:25:23;15.60;;;9.80;;
59416;SDS011;45222;52.458;20.914;2023-07-13T19:29:08;11.90;;;8.10;;
59416;SDS011;45222;52.458;20.914;2023-07-13T19:32:58;18.20;;;8.20;;
59416;SDS011;45222;52.458;20.914;2023-07-13T19:36:44;13.60;;;9.00;;
59416;SDS011;45222;52.458;20.914;2023-07-13T19:40:29;11.70;;;9.20;;
59416;SDS011;45222;52.458;20.914;2023-07-13T19:44:14;14.20;;;9.10;;
59416;SDS011;45222;52.458;20.914;2023-07-13T19:48:00;11.90;;;8.50;;
59416;SDS011;45222;52.458;20.914;2023-07-13T19:51:45;11.80;;;8.30;;
59416;SDS011;45222;52.458;20.914;2023-07-13T19:55:31;11.00;;;9.00;;
59416;SDS011;45222;52.458;20.914;2023-07-13T19:59:20;12.30;;;9.40;;
59416;SDS011;45222;52.458;20.914;2023-07-13T20:03:09;11.70;;;9.00;;
59416;SDS011;45222;52.458;20.914;2023-07-13T20:06:54;11.70;;;8.60;;
59416;SDS011;45222;52.458;20.914;2023-07-13T20:10:40;14.20;;;11.30;;
59416;SDS011;45222;52.458;20.914;2023-07-13T20:14:26;17.90;;;10.40;;
59416;SDS011;45222;52.458;20.914;2023-07-13T20:18:13;13.90;;;10.60;;
59416;SDS011;45222;52.458;20.914;2023-07-13T20:21:59;14.30;;;12.00;;
59416;SDS011;45222;52.458;20.914;2023-07-13T20:25:45;16.60;;;11.60;;
59416;SDS011;45222;52.458;20.914;2023-07-13T20:29:31;17.10;;;10.90;;
59416;SDS011;45222;52.458;20.914;2023-07-13T20:33:17;12.40;;;10.10;;
59416;SDS011;45222;52.458;20.914;2023-07-13T20:37:11;13.40;;;10.10;;
59416;SDS011;45222;52.458;20.914;2023-07-13T20:41:15;16.30;;;10.30;;
59416;SDS011;45222;52.458;20.914;2023-07-13T20:45:01;11.60;;;9.50;;
59416;SDS011;45222;52.458;20.914;2023-07-13T20:48:47;13.50;;;9.50;;
59416;SDS011;45222;52.458;20.914;2023-07-13T20:52:34;15.00;;;10.70;;
59416;SDS011;45222;52.458;20.914;2023-07-13T20:56:20;19.10;;;12.10;;
59416;SDS011;45222;52.458;20.914;2023-07-13T21:00:08;25.50;;;15.70;;
59416;SDS011;45222;52.458;20.914;2023-07-13T21:03:58;30.10;;;18.20;;
59416;SDS011;45222;52.458;20.914;2023-07-13T21:07:45;21.10;;;15.10;;
59416;SDS011;45222;52.458;20.914;2023-07-13T21:11:31;15.40;;;11.30;;
59416;SDS011;45222;52.458;20.914;2023-07-13T21:15:17;12.60;;;9.30;;
59416;SDS011;45222;52.458;20.914;2023-07-13T21:19:04;13.90;;;9.90;;
59416;SDS011;45222;52.458;20.914;2023-07-13T21:22:55;25.50;;;15.60;;
59416;SDS011;45222;52.458;20.914;2023-07-13T21:26:40;18.00;;;12.50;;
59416;SDS011;45222;52.458;20.914;2023-07-13T21:30:26;11.60;;;9.40;;
59416;SDS011;45222;52.458;20.914;2023-07-13T21:34:16;11.60;;;9.50;;
59416;SDS011;45222;52.458;20.914;2023-07-13T21:38:04;14.40;;;9.90;;
59416;SDS011;45222;52.458;20.914;2023-07-13T21:41:59;13.20;;;9.80;;
59416;SDS011;45222;52.458;20.914;2023-07-13T21:45:45;16.00;;;11.40;;
59416;SDS011;45222;52.458;20.914;2023-07-13T21:49:30;13.10;;;10.50;;
59416;SDS011;45222;52.458;20.914;2023-07-13T21:53:21;12.50;;;10.90;;
59416;SDS011;45222;52.458;20.914;2023-07-13T21:57:09;13.60;;;9.90;;
59416;SDS011;45222;52.458;20.914;2023-07-13T22:00:58;14.60;;;10.30;;
59416;SDS011;45222;52.458;20.914;2023-07-13T22:04:45;15.10;;;9.90;;
59416;SDS011;45222;52.458;20.914;2023-07-13T22:08:33;17.30;;;10.20;;
59416;SDS011;45222;52.458;20.914;2023-07-13T22:12:20;12.50;;;9.80;;